<?xml version='1.0' encoding='UTF-8'?><gpx version="1.1" creator="JPX - https://github.com/jenetics/jpx" xmlns="http://www.topografix.com/GPX/1/1"><trk><trkseg><trkpt lat="42.66550116412579" lon="12.732646646364303"><ele>666.7142857142857</ele><time>2026-04-11T08:45:30Z</time></trkpt><trkpt lat="42.665493214965274" lon="12.732735313370426"><ele>665.4285714285714</ele><time>2026-04-11T08:45:37Z</time></trkpt><trkpt lat="42.665455596868824" lon="12.732812684518775"><ele>664.1428571428571</ele><time>2026-04-11T08:45:49Z</time></trkpt><trkpt lat="42.66542221027394" lon="12.732901736279963"><ele>662.8571428571429</ele><time>2026-04-11T08:46:36Z</time></trkpt><trkpt lat="42.6654025655938" lon="12.732983764596426"><ele>661.5714285714286</ele><time>2026-04-11T08:46:43Z</time></trkpt><trkpt lat="42.66536486057732" lon="12.733060932592435"><ele>660.2857142857143</ele><time>2026-04-11T08:46:49Z</time></trkpt><trkpt lat="42.665319786683746" lon="12.733130287887146"><ele>659.0</ele><time>2026-04-11T08:46:55Z</time></trkpt><trkpt lat="42.66528950159165" lon="12.733205360567121"><ele>659.0</ele><time>2026-04-11T08:47:02Z</time></trkpt><trkpt lat="42.665240486348154" lon="12.733288595714335"><ele>659.0</ele><time>2026-04-11T08:47:08Z</time></trkpt><trkpt lat="42.66520796052447" lon="12.733375379524297"><ele>659.0</ele><time>2026-04-11T08:47:15Z</time></trkpt><trkpt lat="42.66519017872258" lon="12.733463491159268"><ele>659.0</ele><time>2026-04-11T08:47:21Z</time></trkpt><trkpt lat="42.6651960479268" lon="12.733553478626204"><ele>659.0</ele><time>2026-04-11T08:47:27Z</time></trkpt><trkpt lat="42.665256034537336" lon="12.733510334329145"><ele>659.0</ele><time>2026-04-11T08:47:36Z</time></trkpt><trkpt lat="42.665284018907734" lon="12.733431115059883"><ele>659.0</ele><time>2026-04-11T08:47:41Z</time></trkpt><trkpt lat="42.66535033226596" lon="12.733443820995376"><ele>659.0</ele><time>2026-04-11T08:47:48Z</time></trkpt><trkpt lat="42.66537972758569" lon="12.733528315683856"><ele>659.0</ele><time>2026-04-11T08:47:55Z</time></trkpt><trkpt lat="42.66543405627441" lon="12.733582702267897"><ele>659.0</ele><time>2026-04-11T08:48:03Z</time></trkpt><trkpt lat="42.6654932544146" lon="12.733612555638944"><ele>659.0</ele><time>2026-04-11T08:48:09Z</time></trkpt><trkpt lat="42.6655432701341" lon="12.733669750558956"><ele>659.0</ele><time>2026-04-11T08:48:15Z</time></trkpt><trkpt lat="42.66560887984126" lon="12.733719934035884"><ele>659.0</ele><time>2026-04-11T08:48:21Z</time></trkpt><trkpt lat="42.66565022981106" lon="12.733797768956356"><ele>659.0</ele><time>2026-04-11T08:48:27Z</time></trkpt><trkpt lat="42.665715972986504" lon="12.733801904743817"><ele>659.0</ele><time>2026-04-11T08:48:41Z</time></trkpt><trkpt lat="42.665770702886924" lon="12.733744518993067"><ele>659.0</ele><time>2026-04-11T08:48:52Z</time></trkpt><trkpt lat="42.665757434349494" lon="12.733656402972649"><ele>659.0</ele><time>2026-04-11T08:49:20Z</time></trkpt><trkpt lat="42.66569424305272" lon="12.73364116492313"><ele>659.0</ele><time>2026-04-11T08:49:29Z</time></trkpt><trkpt lat="42.665632182792365" lon="12.733605037298059"><ele>659.0</ele><time>2026-04-11T08:49:41Z</time></trkpt><trkpt lat="42.66556319277127" lon="12.733580300800524"><ele>659.0</ele><time>2026-04-11T08:49:52Z</time></trkpt><trkpt lat="42.665533928922606" lon="12.73350209085932"><ele>659.0</ele><time>2026-04-11T08:50:00Z</time></trkpt><trkpt lat="42.66559412589467" lon="12.733470258364992"><ele>659.0</ele><time>2026-04-11T08:50:07Z</time></trkpt><trkpt lat="42.665656548005586" lon="12.733495689116703"><ele>659.0</ele><time>2026-04-11T08:50:20Z</time></trkpt><trkpt lat="42.66572621115351" lon="12.733519842719993"><ele>659.0</ele><time>2026-04-11T08:50:33Z</time></trkpt><trkpt lat="42.66578858184376" lon="12.733555836768097"><ele>659.0</ele><time>2026-04-11T08:50:42Z</time></trkpt><trkpt lat="42.66585208874254" lon="12.733569959750136"><ele>659.0</ele><time>2026-04-11T08:50:49Z</time></trkpt><trkpt lat="42.66579919642814" lon="12.733503772927833"><ele>659.0</ele><time>2026-04-11T08:52:15Z</time></trkpt><trkpt lat="42.66573323250104" lon="12.733499381640758"><ele>659.0</ele><time>2026-04-11T08:52:25Z</time></trkpt><trkpt lat="42.66567009242631" lon="12.733458459823522"><ele>659.0</ele><time>2026-04-11T08:52:32Z</time></trkpt><trkpt lat="42.66564676791755" lon="12.733375083307862"><ele>659.0</ele><time>2026-04-11T08:52:38Z</time></trkpt><trkpt lat="42.66563686799746" lon="12.73328098290326"><ele>659.0</ele><time>2026-04-11T08:52:47Z</time></trkpt><trkpt lat="42.665620818629925" lon="12.733183971434231"><ele>659.0</ele><time>2026-04-11T08:53:00Z</time></trkpt><trkpt lat="42.66559817511834" lon="12.733097518198758"><ele>659.0</ele><time>2026-04-11T08:53:15Z</time></trkpt><trkpt lat="42.665569560398644" lon="12.73299880371672"><ele>659.0</ele><time>2026-04-11T08:53:49Z</time></trkpt><trkpt lat="42.66554080997994" lon="12.732914188143692"><ele>659.0</ele><time>2026-04-11T08:54:08.999Z</time></trkpt><trkpt lat="42.665557868330865" lon="12.732826072113287"><ele>659.0</ele><time>2026-04-11T08:54:14.999Z</time></trkpt><trkpt lat="42.665629560275434" lon="12.732829364170442"><ele>659.0</ele><time>2026-04-11T08:54:33.999Z</time></trkpt><trkpt lat="42.665675202392535" lon="12.732894733191653"><ele>659.0</ele><time>2026-04-11T08:54:40.999Z</time></trkpt><trkpt lat="42.66574312019505" lon="12.732886691713173"><ele>659.0</ele><time>2026-04-11T08:54:49Z</time></trkpt><trkpt lat="42.665808736208035" lon="12.732871764409735"><ele>659.0</ele><time>2026-04-11T08:54:56Z</time></trkpt><trkpt lat="42.66584663001597" lon="12.732801753104734"><ele>659.0</ele><time>2026-04-11T08:55:04Z</time></trkpt><trkpt lat="42.66587000250692" lon="12.73271721802378"><ele>659.0</ele><time>2026-04-11T08:55:19Z</time></trkpt><trkpt lat="42.66592973701383" lon="12.732668854418826"><ele>658.8571428571429</ele><time>2026-04-11T08:58:02Z</time></trkpt><trkpt lat="42.665994353037505" lon="12.732673089398414"><ele>658.7142857142857</ele><time>2026-04-11T08:58:10Z</time></trkpt><trkpt lat="42.66606028062688" lon="12.73269647559214"><ele>658.5714285714286</ele><time>2026-04-11T08:58:17Z</time></trkpt><trkpt lat="42.666125984441074" lon="12.732714018128478"><ele>658.4285714285714</ele><time>2026-04-11T08:58:23Z</time></trkpt><trkpt lat="42.66618757912653" lon="12.732738596631979"><ele>658.2857142857142</ele><time>2026-04-11T08:58:29Z</time></trkpt><trkpt lat="42.66624921735161" lon="12.732759556110882"><ele>658.1428571428571</ele><time>2026-04-11T08:58:35Z</time></trkpt><trkpt lat="42.666320190749396" lon="12.73276071453283"><ele>658.0</ele><time>2026-04-11T08:58:42Z</time></trkpt><trkpt lat="42.666385389424505" lon="12.732789327531307"><ele>656.0</ele><time>2026-04-11T08:58:48Z</time></trkpt><trkpt lat="42.666453784261506" lon="12.732800039347438"><ele>654.0</ele><time>2026-04-11T08:58:54Z</time></trkpt><trkpt lat="42.66651590764944" lon="12.732820338988708"><ele>652.0</ele><time>2026-04-11T08:59:01Z</time></trkpt><trkpt lat="42.666582145845325" lon="12.732868167563199"><ele>650.0</ele><time>2026-04-11T08:59:13Z</time></trkpt><trkpt lat="42.666632835632996" lon="12.732928500776723"><ele>648.0</ele><time>2026-04-11T08:59:19Z</time></trkpt><trkpt lat="42.66668954392918" lon="12.732970602128797"><ele>646.0</ele><time>2026-04-11T08:59:24Z</time></trkpt><trkpt lat="42.666724744513125" lon="12.733042204176057"><ele>644.0</ele><time>2026-04-11T08:59:29Z</time></trkpt><trkpt lat="42.666771616565505" lon="12.733110090479304"><ele>644.0</ele><time>2026-04-11T08:59:35Z</time></trkpt><trkpt lat="42.666839243760265" lon="12.733111760137048"><ele>644.0</ele><time>2026-04-11T08:59:43Z</time></trkpt><trkpt lat="42.66690509819728" lon="12.733089327639167"><ele>644.0</ele><time>2026-04-11T08:59:48Z</time></trkpt><trkpt lat="42.66696759053947" lon="12.733061787019857"><ele>644.0</ele><time>2026-04-11T08:59:58Z</time></trkpt><trkpt lat="42.66702582238767" lon="12.733001464005012"><ele>644.0</ele><time>2026-04-11T09:00:14Z</time></trkpt><trkpt lat="42.667079710306496" lon="12.732949743086754"><ele>644.0</ele><time>2026-04-11T09:00:23Z</time></trkpt><trkpt lat="42.66712735899036" lon="12.73289116989251"><ele>644.0</ele><time>2026-04-11T09:00:31Z</time></trkpt><trkpt lat="42.667185999467385" lon="12.732815493109936"><ele>644.7142857142857</ele><time>2026-04-11T09:00:41Z</time></trkpt><trkpt lat="42.66724072671755" lon="12.732769077174959"><ele>645.4285714285714</ele><time>2026-04-11T09:00:50Z</time></trkpt><trkpt lat="42.66729619620125" lon="12.732708354243421"><ele>646.1428571428571</ele><time>2026-04-11T09:00:57Z</time></trkpt><trkpt lat="42.66733682801372" lon="12.732639004207662"><ele>646.8571428571429</ele><time>2026-04-11T09:01:04Z</time></trkpt><trkpt lat="42.66727903708892" lon="12.732592339770093"><ele>647.5714285714286</ele><time>2026-04-11T09:01:20Z</time></trkpt><trkpt lat="42.667217786694" lon="12.732624412482195"><ele>648.2857142857142</ele><time>2026-04-11T09:01:27Z</time></trkpt><trkpt lat="42.66716904418435" lon="12.732687724730559"><ele>649.0</ele><time>2026-04-11T09:01:34Z</time></trkpt><trkpt lat="42.66711492509512" lon="12.732742267043237"><ele>648.9999999999999</ele><time>2026-04-11T09:01:43Z</time></trkpt><trkpt lat="42.66706664946012" lon="12.732814146740594"><ele>649.0</ele><time>2026-04-11T09:01:51Z</time></trkpt><trkpt lat="42.66700248104172" lon="12.732854700512142"><ele>649.0</ele><time>2026-04-11T09:02:02Z</time></trkpt><trkpt lat="42.66694000202271" lon="12.732885295480722"><ele>649.0</ele><time>2026-04-11T09:02:09Z</time></trkpt><trkpt lat="42.66693075719998" lon="12.732791700190573"><ele>649.0</ele><time>2026-04-11T09:02:27Z</time></trkpt><trkpt lat="42.66694144490333" lon="12.73270506434222"><ele>648.9999999999999</ele><time>2026-04-11T09:02:40Z</time></trkpt><trkpt lat="42.666973237853284" lon="12.732621275223767"><ele>649.0</ele><time>2026-04-11T09:02:59Z</time></trkpt><trkpt lat="42.66701081931952" lon="12.732550641561408"><ele>648.9999999999999</ele><time>2026-04-11T09:03:06Z</time></trkpt><trkpt lat="42.667033218080476" lon="12.732459333929329"><ele>649.0</ele><time>2026-04-11T09:03:14Z</time></trkpt><trkpt lat="42.66706500240067" lon="12.732374066779226"><ele>649.0</ele><time>2026-04-11T09:03:21Z</time></trkpt><trkpt lat="42.667111748399066" lon="12.732299655945035"><ele>649.0</ele><time>2026-04-11T09:03:29Z</time></trkpt><trkpt lat="42.667186361386904" lon="12.732309867215466"><ele>649.0</ele><time>2026-04-11T09:03:39Z</time></trkpt><trkpt lat="42.667252638342816" lon="12.732327698168955"><ele>648.9999999999999</ele><time>2026-04-11T09:03:48Z</time></trkpt><trkpt lat="42.66731432122631" lon="12.732294319556383"><ele>649.0</ele><time>2026-04-11T09:03:56Z</time></trkpt><trkpt lat="42.667356359897965" lon="12.7322210841759"><ele>648.9999999999999</ele><time>2026-04-11T09:04:06Z</time></trkpt><trkpt lat="42.66736052939918" lon="12.732133286741268"><ele>649.0</ele><time>2026-04-11T09:04:13Z</time></trkpt><trkpt lat="42.6673834089131" lon="12.732042181978073"><ele>649.0</ele><time>2026-04-11T09:04:21Z</time></trkpt><trkpt lat="42.667396390224404" lon="12.731954281025159"><ele>649.0</ele><time>2026-04-11T09:04:28Z</time></trkpt><trkpt lat="42.66742041183523" lon="12.731867155423336"><ele>649.0</ele><time>2026-04-11T09:04:39Z</time></trkpt><trkpt lat="42.66741652548984" lon="12.73177117201252"><ele>648.9999999999999</ele><time>2026-04-11T09:04:46Z</time></trkpt><trkpt lat="42.6673803263279" lon="12.731693684166123"><ele>649.0</ele><time>2026-04-11T09:04:54Z</time></trkpt><trkpt lat="42.66733053502705" lon="12.731753267749472"><ele>648.9999999999999</ele><time>2026-04-11T09:05:02Z</time></trkpt><trkpt lat="42.66730633115607" lon="12.731833489281868"><ele>649.0</ele><time>2026-04-11T09:05:11Z</time></trkpt><trkpt lat="42.66729029905333" lon="12.731924156034228"><ele>649.0</ele><time>2026-04-11T09:05:18Z</time></trkpt><trkpt lat="42.66724268700391" lon="12.731989428315535"><ele>649.0</ele><time>2026-04-11T09:05:24Z</time></trkpt><trkpt lat="42.667192616256045" lon="12.732048968129575"><ele>649.0</ele><time>2026-04-11T09:05:31Z</time></trkpt><trkpt lat="42.667131766812865" lon="12.732104890409657"><ele>648.9999999999999</ele><time>2026-04-11T09:05:39Z</time></trkpt><trkpt lat="42.66709110828647" lon="12.732178152138225"><ele>649.0</ele><time>2026-04-11T09:05:47Z</time></trkpt><trkpt lat="42.6670376225056" lon="12.732234485004575"><ele>648.2857142857142</ele><time>2026-04-11T09:05:59Z</time></trkpt><trkpt lat="42.66694072065526" lon="12.73229177696597"><ele>647.5714285714286</ele><time>2026-04-11T09:06:24Z</time></trkpt><trkpt lat="42.666897037166954" lon="12.7323586339313"><ele>646.8571428571429</ele><time>2026-04-11T09:06:33Z</time></trkpt><trkpt lat="42.66687235144439" lon="12.732451268003114"><ele>646.1428571428571</ele><time>2026-04-11T09:06:50Z</time></trkpt><trkpt lat="42.66685382908268" lon="12.732535053969345"><ele>645.4285714285714</ele><time>2026-04-11T09:06:59Z</time></trkpt><trkpt lat="42.66685034189571" lon="12.732622421161524"><ele>644.7142857142857</ele><time>2026-04-11T09:07:10Z</time></trkpt><trkpt lat="42.666824975846225" lon="12.732709120013215"><ele>644.0</ele><time>2026-04-11T09:07:25.999Z</time></trkpt><trkpt lat="42.66678582030003" lon="12.732776487146452"><ele>644.0</ele><time>2026-04-11T09:07:31.999Z</time></trkpt><trkpt lat="42.66671930678814" lon="12.732786323361793"><ele>644.0</ele><time>2026-04-11T09:07:38.999Z</time></trkpt><trkpt lat="42.66665451872347" lon="12.732761058935457"><ele>644.0</ele><time>2026-04-11T09:07:47Z</time></trkpt><trkpt lat="42.6665928683463" lon="12.732734265643076"><ele>644.0</ele><time>2026-04-11T09:07:57Z</time></trkpt><trkpt lat="42.66652482400603" lon="12.732698652791488"><ele>644.0</ele><time>2026-04-11T09:08:04Z</time></trkpt><trkpt lat="42.6664570290872" lon="12.732675629409146"><ele>644.0</ele><time>2026-04-11T09:08:19Z</time></trkpt><trkpt lat="42.66639374404597" lon="12.73265656772116"><ele>644.0</ele><time>2026-04-11T09:08:29Z</time></trkpt><trkpt lat="42.666326097642006" lon="12.732668102252441"><ele>646.0</ele><time>2026-04-11T09:08:41Z</time></trkpt><trkpt lat="42.66626158935362" lon="12.732660036324958"><ele>648.0</ele><time>2026-04-11T09:08:57Z</time></trkpt><trkpt lat="42.66618637721911" lon="12.732654108595765"><ele>650.0</ele><time>2026-04-11T09:09:07Z</time></trkpt><trkpt lat="42.666117470816225" lon="12.732646514715613"><ele>652.0</ele><time>2026-04-11T09:09:15Z</time></trkpt><trkpt lat="42.66605061991047" lon="12.732610270334506"><ele>654.0</ele><time>2026-04-11T09:09:23Z</time></trkpt><trkpt lat="42.6659850706251" lon="12.732613755773137"><ele>656.0</ele><time>2026-04-11T09:09:31Z</time></trkpt><trkpt lat="42.66592331934834" lon="12.732596417357934"><ele>658.0</ele><time>2026-04-11T09:09:43Z</time></trkpt><trkpt lat="42.66585726364249" lon="12.732596928427443"><ele>659.4285714285714</ele><time>2026-04-11T09:09:55Z</time></trkpt><trkpt lat="42.6657974600027" lon="12.73255685333597"><ele>660.8571428571429</ele><time>2026-04-11T09:10:08Z</time></trkpt><trkpt lat="42.665776069614665" lon="12.732473123000739"><ele>662.2857142857142</ele><time>2026-04-11T09:10:18Z</time></trkpt><trkpt lat="42.665798662480526" lon="12.732388782210318"><ele>663.7142857142858</ele><time>2026-04-11T09:10:31Z</time></trkpt><trkpt lat="42.665872284936285" lon="12.732392213072886"><ele>665.1428571428571</ele><time>2026-04-11T09:10:40Z</time></trkpt><trkpt lat="42.66593125136335" lon="12.732423234559326"><ele>666.5714285714286</ele><time>2026-04-11T09:10:51Z</time></trkpt><trkpt lat="42.665991386322624" lon="12.732453981615247"><ele>668.0</ele><time>2026-04-11T09:11:03Z</time></trkpt><trkpt lat="42.66606279091113" lon="12.732439140554597"><ele>666.5714285714286</ele><time>2026-04-11T09:11:19Z</time></trkpt><trkpt lat="42.66612496849033" lon="12.732453692073872"><ele>665.1428571428571</ele><time>2026-04-11T09:11:26Z</time></trkpt><trkpt lat="42.66619129921042" lon="12.732469232621336"><ele>663.7142857142858</ele><time>2026-04-11T09:11:32Z</time></trkpt><trkpt lat="42.6662562474725" lon="12.732488793712973"><ele>662.2857142857142</ele><time>2026-04-11T09:11:40Z</time></trkpt><trkpt lat="42.666326144864165" lon="12.732504685288308"><ele>660.8571428571429</ele><time>2026-04-11T09:11:47Z</time></trkpt><trkpt lat="42.66638974435399" lon="12.732506247627322"><ele>659.4285714285714</ele><time>2026-04-11T09:11:54Z</time></trkpt><trkpt lat="42.66646628406717" lon="12.732510062088958"><ele>658.0</ele><time>2026-04-11T09:12:05Z</time></trkpt><trkpt lat="42.66652966861804" lon="12.732516464510264"><ele>658.0</ele><time>2026-04-11T09:12:11Z</time></trkpt><trkpt lat="42.6665875295169" lon="12.732553421506532"><ele>658.0</ele><time>2026-04-11T09:12:20Z</time></trkpt><trkpt lat="42.66666023093866" lon="12.73255538324288"><ele>658.0</ele><time>2026-04-11T09:12:27Z</time></trkpt><trkpt lat="42.666745982902896" lon="12.732499052659458"><ele>658.0</ele><time>2026-04-11T09:13:10Z</time></trkpt><trkpt lat="42.66677138934794" lon="12.732419228466554"><ele>658.0</ele><time>2026-04-11T09:13:20Z</time></trkpt><trkpt lat="42.666819941675186" lon="12.73235406650336"><ele>658.0</ele><time>2026-04-11T09:13:42Z</time></trkpt><trkpt lat="42.666813341021566" lon="12.73226824492458"><ele>658.0</ele><time>2026-04-11T09:13:52Z</time></trkpt><trkpt lat="42.66674946229359" lon="12.732284362533552"><ele>658.0</ele><time>2026-04-11T09:14:17Z</time></trkpt><trkpt lat="42.66667733889007" lon="12.732285503013465"><ele>658.0</ele><time>2026-04-11T09:14:25Z</time></trkpt><trkpt lat="42.66661182503588" lon="12.732291541057613"><ele>658.0</ele><time>2026-04-11T09:14:32Z</time></trkpt><trkpt lat="42.666543863348586" lon="12.732311744750639"><ele>658.0</ele><time>2026-04-11T09:14:38Z</time></trkpt><trkpt lat="42.66647995424465" lon="12.732320069575072"><ele>658.0</ele><time>2026-04-11T09:14:47Z</time></trkpt><trkpt lat="42.66642007971277" lon="12.732372033034185"><ele>658.0</ele><time>2026-04-11T09:14:53Z</time></trkpt><trkpt lat="42.66634983619242" lon="12.732394865850187"><ele>658.0</ele><time>2026-04-11T09:15:00Z</time></trkpt><trkpt lat="42.66628321887034" lon="12.732383800425042"><ele>658.0</ele><time>2026-04-11T09:15:08Z</time></trkpt><trkpt lat="42.666233422852535" lon="12.732319489362961"><ele>658.0</ele><time>2026-04-11T09:15:19Z</time></trkpt><trkpt lat="42.666196572175004" lon="12.732234582031918"><ele>658.0</ele><time>2026-04-11T09:15:33Z</time></trkpt><trkpt lat="42.66617055224202" lon="12.732151665250214"><ele>658.0</ele><time>2026-04-11T09:15:51Z</time></trkpt><trkpt lat="42.66614946871165" lon="12.73206884832536"><ele>658.0</ele><time>2026-04-11T09:16:01Z</time></trkpt><trkpt lat="42.66612858325245" lon="12.731979773180079"><ele>658.0</ele><time>2026-04-11T09:16:15Z</time></trkpt><trkpt lat="42.66613171690035" lon="12.731888737897695"><ele>658.0</ele><time>2026-04-11T09:16:28Z</time></trkpt><trkpt lat="42.66615130564884" lon="12.731807221828863"><ele>660.4285714285714</ele><time>2026-04-11T09:16:41Z</time></trkpt><trkpt lat="42.66616280025909" lon="12.731720806807168"><ele>662.8571428571429</ele><time>2026-04-11T09:16:54Z</time></trkpt><trkpt lat="42.666170371583384" lon="12.731628798658372"><ele>665.2857142857142</ele><time>2026-04-11T09:17:11Z</time></trkpt><trkpt lat="42.66619936595036" lon="12.731550100990576"><ele>667.7142857142858</ele><time>2026-04-11T09:17:21Z</time></trkpt><trkpt lat="42.666214263743775" lon="12.731446791974916"><ele>670.1428571428571</ele><time>2026-04-11T09:17:49Z</time></trkpt><trkpt lat="42.66623739517208" lon="12.731365353502161"><ele>672.5714285714286</ele><time>2026-04-11T09:18:07Z</time></trkpt><trkpt lat="42.66624674272832" lon="12.73127379643588"><ele>675.0</ele><time>2026-04-11T09:18:15Z</time></trkpt><trkpt lat="42.666265476597744" lon="12.731187776726443"><ele>675.0</ele><time>2026-04-11T09:18:26Z</time></trkpt><trkpt lat="42.666305218644865" lon="12.731113153256523"><ele>675.0</ele><time>2026-04-11T09:18:37Z</time></trkpt><trkpt lat="42.66633806681737" lon="12.73103083916193"><ele>675.0</ele><time>2026-04-11T09:18:49Z</time></trkpt><trkpt lat="42.66637800634427" lon="12.730960654592765"><ele>675.0</ele><time>2026-04-11T09:19:03Z</time></trkpt><trkpt lat="42.66632422836944" lon="12.730908941192787"><ele>675.0</ele><time>2026-04-11T09:19:16Z</time></trkpt><trkpt lat="42.66625970166579" lon="12.730936038294479"><ele>675.0</ele><time>2026-04-11T09:19:25Z</time></trkpt><trkpt lat="42.66619431149177" lon="12.730957391769934"><ele>675.0</ele><time>2026-04-11T09:19:35Z</time></trkpt><trkpt lat="42.66613720034314" lon="12.730997880037616"><ele>677.8571428571429</ele><time>2026-04-11T09:19:44Z</time></trkpt><trkpt lat="42.66607037029939" lon="12.730983345384278"><ele>680.7142857142858</ele><time>2026-04-11T09:19:51Z</time></trkpt><trkpt lat="42.66607857062354" lon="12.730896976501478"><ele>683.5714285714287</ele><time>2026-04-11T09:19:59Z</time></trkpt><trkpt lat="42.666076783778216" lon="12.730810776121888"><ele>686.4285714285714</ele><time>2026-04-11T09:20:12Z</time></trkpt><trkpt lat="42.66607216869354" lon="12.730720332886436"><ele>689.2857142857143</ele><time>2026-04-11T09:20:27Z</time></trkpt><trkpt lat="42.66601213484477" lon="12.730674926631506"><ele>692.1428571428572</ele><time>2026-04-11T09:20:38Z</time></trkpt><trkpt lat="42.66595706193463" lon="12.73074380657475"><ele>695.0</ele><time>2026-04-11T09:20:51Z</time></trkpt><trkpt lat="42.66592778239139" lon="12.730821867837898"><ele>695.0000000000001</ele><time>2026-04-11T09:20:57Z</time></trkpt><trkpt lat="42.66585806971428" lon="12.730791990807003"><ele>695.0</ele><time>2026-04-11T09:21:04Z</time></trkpt><trkpt lat="42.665862372366064" lon="12.730694257997131"><ele>695.0</ele><time>2026-04-11T09:21:11Z</time></trkpt><trkpt lat="42.665824634208725" lon="12.730613743909487"><ele>695.0</ele><time>2026-04-11T09:21:27Z</time></trkpt><trkpt lat="42.66575668758662" lon="12.730597221336314"><ele>695.0</ele><time>2026-04-11T09:21:32Z</time></trkpt><trkpt lat="42.66569204326621" lon="12.730633220634838"><ele>695.0000000000001</ele><time>2026-04-11T09:21:38Z</time></trkpt><trkpt lat="42.66564404445614" lon="12.730692283306169"><ele>695.0</ele><time>2026-04-11T09:21:43Z</time></trkpt><trkpt lat="42.66561633385545" lon="12.730771732628185"><ele>695.0000000000001</ele><time>2026-04-11T09:21:49Z</time></trkpt><trkpt lat="42.665629682852256" lon="12.730860075203799"><ele>695.0</ele><time>2026-04-11T09:21:57Z</time></trkpt><trkpt lat="42.66568678035573" lon="12.730903279554553"><ele>695.0</ele><time>2026-04-11T09:23:18Z</time></trkpt><trkpt lat="42.66575005932952" lon="12.730929165273684"><ele>695.0</ele><time>2026-04-11T09:23:25Z</time></trkpt><trkpt lat="42.66582121328679" lon="12.73093970493004"><ele>695.0</ele><time>2026-04-11T09:23:31Z</time></trkpt><trkpt lat="42.665890697025766" lon="12.730956560129664"><ele>695.0000000000001</ele><time>2026-04-11T09:23:37Z</time></trkpt><trkpt lat="42.665848499634755" lon="12.73103723112392"><ele>695.0</ele><time>2026-04-11T09:24:31.999Z</time></trkpt><trkpt lat="42.6657815967742" lon="12.731054281652826"><ele>692.7142857142858</ele><time>2026-04-11T09:24:37.999Z</time></trkpt><trkpt lat="42.665713284437395" lon="12.731070883259386"><ele>690.4285714285714</ele><time>2026-04-11T09:24:45.999Z</time></trkpt><trkpt lat="42.665635029588344" lon="12.731058953625068"><ele>688.1428571428571</ele><time>2026-04-11T09:25:13.999Z</time></trkpt><trkpt lat="42.665588316287334" lon="12.731123415612467"><ele>685.8571428571429</ele><time>2026-04-11T09:25:21.999Z</time></trkpt><trkpt lat="42.665581993786056" lon="12.731209474336207"><ele>683.5714285714286</ele><time>2026-04-11T09:25:33.999Z</time></trkpt><trkpt lat="42.66554808663703" lon="12.731295029304025"><ele>681.2857142857143</ele><time>2026-04-11T09:25:42.999Z</time></trkpt><trkpt lat="42.66552812072116" lon="12.731389909746033"><ele>679.0</ele><time>2026-04-11T09:25:49.999Z</time></trkpt><trkpt lat="42.66550944129688" lon="12.731477226592803"><ele>679.0</ele><time>2026-04-11T09:25:55.999Z</time></trkpt><trkpt lat="42.665497816025926" lon="12.731574273507302"><ele>679.0</ele><time>2026-04-11T09:26:00.999Z</time></trkpt><trkpt lat="42.6654899564421" lon="12.731676789079797"><ele>679.0</ele><time>2026-04-11T09:26:07.999Z</time></trkpt><trkpt lat="42.66547006395848" lon="12.731777943496251"><ele>679.0</ele><time>2026-04-11T09:26:15.999Z</time></trkpt><trkpt lat="42.6654672523729" lon="12.731864627741759"><ele>679.0</ele><time>2026-04-11T09:26:21.999Z</time></trkpt><trkpt lat="42.66546717512536" lon="12.731970597882272"><ele>679.0</ele><time>2026-04-11T09:26:27.999Z</time></trkpt><trkpt lat="42.66544763550278" lon="12.732065109418814"><ele>679.0</ele><time>2026-04-11T09:26:32.999Z</time></trkpt><trkpt lat="42.66550524437389" lon="12.732105793491286"><ele>679.0</ele><time>2026-04-11T09:26:37.999Z</time></trkpt><trkpt lat="42.66556948921855" lon="12.732103292241192"><ele>679.0</ele><time>2026-04-11T09:26:42.999Z</time></trkpt><trkpt lat="42.66563723017729" lon="12.732085729417369"><ele>679.0</ele><time>2026-04-11T09:27:10.999Z</time></trkpt><trkpt lat="42.665695906894854" lon="12.73205132387994"><ele>679.0</ele><time>2026-04-11T09:27:15.999Z</time></trkpt><trkpt lat="42.665741457229046" lon="12.731988927862599"><ele>679.0</ele><time>2026-04-11T09:27:39.999Z</time></trkpt><trkpt lat="42.66578407335759" lon="12.731911782735736"><ele>679.0</ele><time>2026-04-11T09:27:46.999Z</time></trkpt><trkpt lat="42.665805880657004" lon="12.731825732769247"><ele>679.0</ele><time>2026-04-11T09:27:54.999Z</time></trkpt><trkpt lat="42.665795788722825" lon="12.731732948567663"><ele>679.0</ele><time>2026-04-11T09:28:08.999Z</time></trkpt><trkpt lat="42.66575696811197" lon="12.731660915157494"><ele>679.0</ele><time>2026-04-11T09:28:17.999Z</time></trkpt><trkpt lat="42.66569979604794" lon="12.73160538927456"><ele>679.0</ele><time>2026-04-11T09:28:24.999Z</time></trkpt><trkpt lat="42.66565795352084" lon="12.73154040293813"><ele>679.0</ele><time>2026-04-11T09:28:30.999Z</time></trkpt><trkpt lat="42.66564657624292" lon="12.731448155456036"><ele>679.0</ele><time>2026-04-11T09:28:36.999Z</time></trkpt><trkpt lat="42.66569584837225" lon="12.731384753287346"><ele>679.0</ele><time>2026-04-11T09:28:42.999Z</time></trkpt><trkpt lat="42.6657461047442" lon="12.731316868962896"><ele>679.0</ele><time>2026-04-11T09:28:49.999Z</time></trkpt><trkpt lat="42.66580215989548" lon="12.731269926206542"><ele>679.0</ele><time>2026-04-11T09:28:56Z</time></trkpt><trkpt lat="42.66586944395194" lon="12.731241619625973"><ele>679.0</ele><time>2026-04-11T09:29:02Z</time></trkpt><trkpt lat="42.66593326884929" lon="12.731235893055615"><ele>679.0</ele><time>2026-04-11T09:29:08Z</time></trkpt><trkpt lat="42.665997541310986" lon="12.731223794631067"><ele>679.0</ele><time>2026-04-11T09:29:15Z</time></trkpt><trkpt lat="42.666023165213964" lon="12.73132218860697"><ele>679.0</ele><time>2026-04-11T09:29:25Z</time></trkpt><trkpt lat="42.66602818419853" lon="12.7314149913562"><ele>679.0</ele><time>2026-04-11T09:29:44Z</time></trkpt><trkpt lat="42.666022477133076" lon="12.731507199417953"><ele>679.0</ele><time>2026-04-11T09:29:53Z</time></trkpt><trkpt lat="42.66603122939012" lon="12.73160011263219"><ele>679.0</ele><time>2026-04-11T09:30:07Z</time></trkpt><trkpt lat="42.66599076540602" lon="12.731667995791089"><ele>679.0</ele><time>2026-04-11T09:30:20Z</time></trkpt><trkpt lat="42.665927819774176" lon="12.731675826780817"><ele>679.0</ele><time>2026-04-11T09:30:26Z</time></trkpt><trkpt lat="42.66587211090608" lon="12.731725973878806"><ele>679.0</ele><time>2026-04-11T09:30:38Z</time></trkpt><trkpt lat="42.66586458142301" lon="12.731817831557436"><ele>679.0</ele><time>2026-04-11T09:30:48Z</time></trkpt><trkpt lat="42.6658642850474" lon="12.731914877190155"><ele>679.0</ele><time>2026-04-11T09:31:15Z</time></trkpt><trkpt lat="42.66583724231179" lon="12.731999205157617"><ele>679.0</ele><time>2026-04-11T09:31:21Z</time></trkpt><trkpt lat="42.66579949755097" lon="12.732079589204115"><ele>677.4285714285714</ele><time>2026-04-11T09:31:28Z</time></trkpt><trkpt lat="42.66575100518037" lon="12.732145369712212"><ele>675.8571428571429</ele><time>2026-04-11T09:31:35Z</time></trkpt><trkpt lat="42.66571626380947" lon="12.732234340522492"><ele>674.2857142857142</ele><time>2026-04-11T09:31:47Z</time></trkpt><trkpt lat="42.6656987965908" lon="12.732327580513878"><ele>672.7142857142858</ele><time>2026-04-11T09:31:54Z</time></trkpt><trkpt lat="42.66567042205688" lon="12.732410248932238"><ele>671.1428571428571</ele><time>2026-04-11T09:32:01.001Z</time></trkpt><trkpt lat="42.66566301810571" lon="12.732499212230879"><ele>669.5714285714286</ele><time>2026-04-11T09:32:10.001Z</time></trkpt><trkpt lat="42.66564966496434" lon="12.732589795712538"><ele>668.0</ele><time>2026-04-11T09:32:16.001Z</time></trkpt><trkpt lat="42.66560071397987" lon="12.732530599954266"><ele>668.0</ele><time>2026-04-11T09:32:32.001Z</time></trkpt><trkpt lat="42.66553481831788" lon="12.732523988352257"><ele>668.0</ele><time>2026-04-11T09:32:41.001Z</time></trkpt><trkpt lat="42.66546293608105" lon="12.732539071139671"><ele>668.0</ele><time>2026-04-11T09:32:51.001Z</time></trkpt><trkpt lat="42.66540149857325" lon="12.732590271489789"><ele>668.0</ele><time>2026-04-11T09:32:58.001Z</time></trkpt><trkpt lat="42.66537296486129" lon="12.73266690810263"><ele>668.0</ele><time>2026-04-11T09:33:04.001Z</time></trkpt><trkpt lat="42.665326540290906" lon="12.732727251793145"><ele>668.0</ele><time>2026-04-11T09:33:09.001Z</time></trkpt><trkpt lat="42.665267655462976" lon="12.732771034657224"><ele>668.0</ele><time>2026-04-11T09:33:14.001Z</time></trkpt><trkpt lat="42.66519424965929" lon="12.732766311036995"><ele>673.0</ele><time>2026-04-11T09:33:23.001Z</time></trkpt><trkpt lat="42.66512411108544" lon="12.732787600369885"><ele>673.0</ele><time>2026-04-11T09:34:00.001Z</time></trkpt></trkseg></trk></gpx>